createdAt,value
2018-05-25T00:01:57.897Z,26.63
2018-05-25T00:04:24.937Z,26.73
2018-05-25T00:06:52.003Z,27.70
2018-05-25T00:09:18.294Z,25.23
2018-05-25T00:11:44.558Z,28.10
2018-05-25T00:14:10.803Z,27.37
2018-05-25T00:16:37.039Z,26.27
2018-05-25T00:19:03.272Z,24.93
2018-05-25T00:21:29.501Z,27.77
2018-05-25T00:23:55.787Z,28.77
2018-05-25T00:26:22.773Z,28.20
2018-05-25T00:28:48.987Z,25.73
2018-05-25T00:31:15.224Z,28.70
2018-05-25T00:33:41.433Z,27.87
2018-05-25T00:36:07.647Z,27.57
2018-05-25T00:38:34.593Z,26.70
2018-05-25T00:41:01.562Z,26.53
2018-05-25T00:43:27.771Z,26.00
2018-05-25T00:45:54.082Z,29.43
2018-05-25T00:48:21.055Z,28.30
2018-05-25T00:50:47.290Z,25.20
2018-05-25T00:53:13.518Z,27.13
2018-05-25T00:55:39.774Z,25.50
2018-05-25T00:58:06.015Z,23.13
2018-05-25T01:00:32.284Z,25.43
2018-05-25T01:02:58.510Z,28.27
2018-05-25T01:05:24.713Z,26.20
2018-05-25T01:07:50.955Z,25.23
2018-05-25T01:10:17.925Z,26.53
2018-05-25T01:12:44.137Z,29.03
2018-05-25T01:15:10.361Z,26.23
2018-05-25T01:17:51.450Z,27.03
2018-05-25T01:20:17.798Z,26.27
2018-05-25T01:22:44.009Z,28.17
2018-05-25T01:25:10.230Z,27.03
2018-05-25T01:27:36.452Z,26.83
2018-05-25T01:30:02.689Z,26.40
2018-05-25T01:32:28.933Z,28.70
2018-05-25T01:34:55.145Z,26.97
2018-05-25T01:37:21.361Z,26.43
2018-05-25T01:39:47.597Z,26.90
2018-05-25T01:42:13.830Z,29.23
2018-05-25T01:44:40.050Z,27.63
2018-05-25T01:47:06.262Z,27.93
2018-05-25T01:49:33.296Z,28.43
2018-05-25T01:51:59.531Z,30.10
2018-05-25T01:54:26.505Z,28.60
2018-05-25T01:56:52.835Z,28.10
2018-05-25T01:59:19.054Z,28.83
2018-05-25T02:01:45.273Z,30.47
2018-05-25T02:04:11.492Z,31.00
2018-05-25T02:06:38.478Z,33.40
2018-05-25T02:09:04.746Z,29.80
2018-05-25T02:11:30.949Z,29.30
2018-05-25T02:13:57.957Z,30.27
2018-05-25T02:16:24.176Z,30.27
2018-05-25T02:18:50.406Z,27.00
2018-05-25T02:21:16.627Z,29.80
2018-05-25T02:23:42.977Z,29.77
2018-05-25T02:26:09.193Z,28.70
2018-05-25T02:28:35.392Z,29.57
2018-05-25T02:31:01.598Z,30.27
2018-05-25T02:33:27.818Z,32.53
2018-05-25T02:35:54.036Z,29.63
2018-05-25T02:38:20.258Z,29.37
2018-05-25T02:40:46.459Z,32.03
2018-05-25T02:43:12.644Z,31.13
2018-05-25T02:45:38.863Z,31.57
2018-05-25T02:48:05.095Z,31.50
2018-05-25T02:50:31.367Z,30.93
2018-05-25T02:52:57.582Z,31.80
2018-05-25T02:55:24.538Z,31.83
2018-05-25T02:57:50.762Z,29.87
2018-05-25T03:00:17.013Z,31.40
2018-05-25T03:02:43.214Z,32.17
2018-05-25T03:05:10.199Z,35.33
2018-05-25T03:07:36.430Z,33.57
2018-05-25T03:10:02.658Z,33.90
2018-05-25T03:12:28.849Z,34.60
2018-05-25T03:14:55.089Z,33.70
2018-05-25T03:17:21.314Z,39.40
2018-05-25T03:19:47.543Z,35.77
2018-05-25T03:22:13.726Z,34.20
2018-05-25T03:24:39.960Z,38.37
2018-05-25T03:27:06.949Z,39.20
2018-05-25T03:29:33.174Z,38.27
2018-05-25T03:31:59.364Z,38.23
2018-05-25T03:34:26.315Z,37.30
2018-05-25T03:36:53.269Z,35.37
2018-05-25T03:39:20.197Z,35.70
2018-05-25T03:41:47.167Z,41.83
2018-05-25T03:44:13.402Z,39.80
2018-05-25T03:46:39.634Z,39.93
2018-05-25T03:49:05.847Z,38.67
2018-05-25T03:51:32.095Z,39.37
2018-05-25T03:53:58.305Z,43.33
2018-05-25T03:56:24.532Z,41.00
2018-05-25T03:59:03.060Z,41.67
2018-05-25T04:01:45.226Z,40.10
2018-05-25T04:04:13.098Z,39.07
2018-05-25T04:06:40.068Z,38.90
2018-05-25T04:09:06.283Z,41.23
2018-05-25T04:11:32.484Z,38.93
2018-05-25T04:13:58.718Z,37.70
2018-05-25T04:16:25.665Z,39.70
2018-05-25T04:18:52.610Z,40.57
2018-05-25T04:21:19.542Z,38.90
2018-05-25T04:23:45.764Z,38.93
2018-05-25T04:26:13.633Z,37.33
2018-05-25T04:28:40.567Z,37.00
2018-05-25T04:31:06.781Z,42.07
2018-05-25T04:33:33.016Z,39.67
2018-05-25T04:35:59.303Z,38.90
2018-05-25T04:38:25.517Z,39.07
2018-05-25T04:40:51.766Z,38.60
2018-05-25T04:43:17.998Z,39.87
2018-05-25T04:45:44.286Z,39.33
2018-05-25T04:48:11.269Z,42.03
2018-05-25T04:50:38.218Z,38.37
2018-05-25T04:53:04.463Z,46.80
2018-05-25T04:55:30.676Z,39.53
2018-05-25T04:57:56.936Z,43.87
2018-05-25T05:00:23.145Z,38.47
2018-05-25T05:02:49.346Z,34.20
2018-05-25T05:05:15.588Z,40.87
2018-05-25T05:07:41.890Z,43.93
2018-05-25T05:10:08.107Z,42.13
2018-05-25T05:12:35.064Z,42.30
2018-05-25T05:15:01.306Z,38.63
2018-05-25T05:17:27.516Z,39.13
2018-05-25T05:19:53.759Z,35.50
2018-05-25T05:22:20.075Z,36.17
2018-05-25T05:24:46.275Z,35.13
2018-05-25T05:27:13.230Z,32.13
2018-05-25T05:29:40.183Z,32.37
2018-05-25T05:32:07.178Z,33.60
2018-05-25T05:34:33.418Z,34.53
2018-05-25T05:36:59.618Z,34.27
2018-05-25T05:39:25.829Z,32.63
2018-05-25T05:41:52.058Z,33.13
2018-05-25T05:44:18.296Z,29.67
2018-05-25T05:46:44.525Z,31.33
2018-05-25T05:49:10.745Z,29.20
2018-05-25T05:51:36.950Z,30.13
2018-05-25T05:54:03.177Z,30.10
2018-05-25T05:56:30.125Z,26.63
2018-05-25T05:58:56.463Z,25.73
2018-05-25T06:01:22.739Z,25.77
2018-05-25T06:03:48.966Z,25.70
2018-05-25T06:06:15.212Z,25.83
2018-05-25T06:08:41.446Z,23.77
2018-05-25T06:11:08.391Z,24.10
2018-05-25T06:13:35.357Z,22.10
2018-05-25T06:16:01.621Z,21.10
2018-05-25T06:18:27.858Z,19.90
2018-05-25T06:20:54.090Z,23.00
2018-05-25T06:23:20.369Z,22.10
2018-05-25T06:25:47.359Z,20.03
2018-05-25T06:28:13.549Z,21.60
2018-05-25T06:30:39.790Z,22.10
2018-05-25T06:33:06.773Z,20.90
2018-05-25T06:35:32.974Z,24.63
2018-05-25T06:37:59.222Z,22.50
2018-05-25T06:40:25.471Z,20.73
2018-05-25T06:42:51.677Z,20.47
2018-05-25T06:45:17.911Z,21.33
2018-05-25T06:47:44.114Z,20.73
2018-05-25T06:50:10.372Z,21.37
2018-05-25T06:52:36.618Z,20.17
2018-05-25T06:55:03.606Z,21.07
2018-05-25T06:57:29.835Z,22.57
2018-05-25T06:59:56.066Z,21.07
2018-05-25T07:02:22.293Z,21.37
2018-05-25T07:04:48.530Z,20.30
2018-05-25T07:07:14.754Z,20.50
2018-05-25T07:12:13.963Z,20.07
2018-05-25T07:14:40.180Z,19.93
2018-05-25T07:17:06.433Z,19.70
2018-05-25T07:19:32.697Z,19.27
2018-05-25T07:21:59.668Z,19.80
2018-05-25T07:24:25.896Z,18.93
2018-05-25T07:26:52.176Z,19.73
2018-05-25T07:29:18.602Z,18.37
2018-05-25T07:31:44.830Z,16.53
2018-05-25T07:34:11.051Z,15.70
2018-05-25T07:36:37.278Z,15.67
2018-05-25T07:39:03.578Z,15.93
2018-05-25T07:41:29.902Z,14.60
2018-05-25T07:43:56.193Z,15.07
2018-05-25T07:46:22.421Z,13.18
2018-05-25T07:48:48.659Z,13.38
2018-05-25T07:51:15.689Z,13.05
2018-05-25T07:53:41.901Z,13.00
2018-05-25T07:56:08.170Z,13.65
2018-05-25T07:58:35.130Z,12.43
2018-05-25T08:01:01.368Z,13.25
2018-05-25T08:03:27.634Z,13.77
2018-05-25T08:05:53.904Z,14.32
2018-05-25T08:08:20.835Z,14.32
2018-05-25T08:10:47.826Z,16.02
2018-05-25T08:13:14.045Z,13.62
2018-05-25T08:15:40.283Z,15.27
2018-05-25T08:18:06.506Z,12.65
2018-05-25T08:20:32.711Z,13.75
2018-05-25T08:22:58.966Z,13.40
2018-05-25T08:25:25.950Z,14.38
2018-05-25T08:27:52.194Z,13.25
2018-05-25T08:30:19.202Z,12.93
2018-05-25T08:32:45.451Z,13.15
2018-05-25T08:35:11.657Z,15.05
2018-05-25T08:37:37.944Z,13.23
2018-05-25T08:40:04.874Z,11.85
2018-05-25T08:42:31.857Z,14.45
2018-05-25T08:44:58.092Z,12.13
2018-05-25T08:47:24.324Z,13.35
2018-05-25T08:49:50.570Z,12.45
2018-05-25T08:52:16.817Z,13.52
2018-05-25T08:54:43.800Z,13.00
2018-05-25T08:57:10.017Z,13.20
2018-05-25T08:59:36.318Z,13.70
2018-05-25T09:02:03.325Z,13.20
2018-05-25T09:04:29.525Z,12.15
2018-05-25T09:06:55.774Z,11.63
2018-05-25T09:09:28.856Z,11.32
2018-05-25T09:11:55.090Z,11.52
2018-05-25T09:14:21.310Z,14.50
2018-05-25T09:16:47.535Z,12.52
2018-05-25T09:19:13.765Z,11.27
2018-05-25T09:21:40.200Z,12.85
2018-05-25T09:24:06.362Z,12.98
2018-05-25T09:26:32.578Z,12.98
2018-05-25T09:28:58.818Z,13.13
2018-05-25T09:31:25.037Z,13.88
2018-05-25T09:33:51.328Z,10.20
2018-05-25T09:36:17.589Z,12.90
2018-05-25T09:38:43.818Z,10.73
2018-05-25T09:41:10.021Z,10.75
2018-05-25T09:43:36.254Z,9.23
2018-05-25T09:46:02.543Z,9.27
2018-05-25T09:48:29.490Z,10.35
2018-05-25T09:50:55.756Z,9.30
2018-05-25T09:53:22.018Z,8.73
2018-05-25T09:55:48.250Z,8.88
2018-05-25T09:58:14.478Z,10.00
2018-05-25T10:00:41.482Z,10.43
2018-05-25T10:03:07.753Z,10.15
2018-05-25T10:05:33.973Z,10.85
2018-05-25T10:08:00.230Z,9.55
2018-05-25T10:10:27.214Z,11.35
2018-05-25T10:12:53.522Z,9.90
2018-05-25T10:15:19.765Z,11.23
2018-05-25T10:17:46.032Z,10.57
2018-05-25T10:20:12.994Z,10.20
2018-05-25T10:22:39.299Z,10.25
2018-05-25T10:25:05.643Z,9.85
2018-05-25T10:27:31.874Z,10.80
2018-05-25T10:29:58.209Z,10.02
2018-05-25T10:32:25.182Z,9.90
2018-05-25T10:34:51.415Z,9.63
2018-05-25T10:37:17.671Z,8.60
2018-05-25T10:39:43.932Z,8.18
2018-05-25T10:42:10.164Z,8.15
2018-05-25T10:44:37.134Z,7.75
2018-05-25T10:47:03.512Z,7.57
2018-05-25T10:49:29.737Z,7.78
2018-05-25T10:51:55.949Z,8.30
2018-05-25T10:54:22.191Z,7.90
2018-05-25T10:56:48.477Z,7.47
2018-05-25T10:59:14.687Z,8.57
2018-05-25T11:01:41.663Z,8.95
2018-05-25T11:04:07.885Z,10.90
2018-05-25T11:06:34.091Z,11.20
2018-05-25T11:09:01.059Z,11.73
2018-05-25T11:11:27.314Z,10.93
2018-05-25T11:13:53.562Z,10.15
2018-05-25T11:16:19.784Z,10.68
2018-05-25T11:18:45.981Z,9.85
2018-05-25T11:21:12.266Z,10.52
2018-05-25T11:23:39.264Z,10.82
2018-05-25T11:26:05.649Z,10.93
2018-05-25T11:28:32.625Z,10.63
2018-05-25T11:30:58.870Z,10.05
2018-05-25T11:33:25.185Z,13.60
2018-05-25T11:35:51.429Z,11.40
2018-05-25T11:38:17.679Z,9.70
2018-05-25T11:40:43.920Z,9.18
2018-05-25T11:43:10.208Z,8.60
2018-05-25T11:45:36.468Z,7.50
2018-05-25T11:48:02.710Z,7.72
2018-05-25T11:50:29.038Z,10.75
2018-05-25T11:52:55.332Z,10.00
2018-05-25T11:55:21.630Z,8.57
2018-05-25T11:57:47.859Z,8.43
2018-05-25T12:00:14.133Z,10.20
2018-05-25T12:02:40.386Z,8.80
2018-05-25T12:05:07.380Z,9.82
2018-05-25T12:07:33.625Z,11.05
2018-05-25T12:09:59.847Z,10.10
2018-05-25T12:12:26.086Z,9.63
2018-05-25T12:14:52.384Z,19.27
2018-05-25T12:17:18.650Z,10.50
2018-05-25T12:19:44.862Z,9.77
2018-05-25T12:22:11.164Z,10.70
2018-05-25T12:24:37.409Z,9.73
2018-05-25T12:27:03.629Z,9.38
2018-05-25T12:29:29.843Z,9.83
2018-05-25T12:31:56.116Z,9.48
2018-05-25T12:34:22.365Z,9.05
2018-05-25T12:36:49.306Z,8.80
2018-05-25T12:39:15.641Z,9.27
2018-05-25T12:41:41.890Z,9.83
2018-05-25T12:44:08.854Z,10.47
2018-05-25T12:46:35.091Z,9.93
2018-05-25T12:49:01.314Z,11.80
2018-05-25T12:51:28.543Z,10.33
2018-05-25T12:53:54.860Z,9.60
2018-05-25T12:56:21.798Z,9.43
2018-05-25T12:58:48.762Z,10.05
2018-05-25T13:01:15.013Z,8.43
2018-05-25T13:03:41.256Z,10.77
2018-05-25T13:06:07.467Z,9.95
2018-05-25T13:08:33.733Z,10.20
2018-05-25T13:11:00.086Z,10.98
2018-05-25T13:13:27.079Z,11.32
2018-05-25T13:15:53.347Z,10.27
2018-05-25T13:18:19.600Z,9.80
2018-05-25T13:20:46.559Z,10.13
2018-05-25T13:23:12.778Z,9.00
2018-05-25T13:25:39.013Z,9.43
2018-05-25T13:28:05.350Z,9.47
2018-05-25T13:30:31.623Z,11.23
2018-05-25T13:32:57.846Z,10.90
2018-05-25T13:35:24.078Z,8.93
2018-05-25T13:37:50.339Z,10.13
2018-05-25T13:40:17.425Z,9.57
2018-05-25T13:42:43.670Z,9.93
2018-05-25T13:45:09.894Z,10.60
2018-05-25T13:47:36.155Z,8.80
2018-05-25T13:50:03.234Z,9.57
2018-05-25T13:52:29.474Z,7.57
2018-05-25T13:54:55.728Z,7.80
2018-05-25T13:57:21.955Z,7.93
2018-05-25T13:59:48.178Z,7.43
2018-05-25T14:02:14.472Z,7.75
2018-05-25T14:04:40.750Z,7.23
2018-05-25T14:07:07.025Z,8.43
2018-05-25T14:09:33.243Z,7.57
2018-05-25T14:12:00.220Z,7.15
2018-05-25T14:14:26.482Z,7.62
2018-05-25T14:16:52.722Z,6.93
2018-05-25T14:19:18.953Z,7.97
2018-05-25T14:21:45.171Z,6.82
2018-05-25T14:24:11.444Z,6.50
2018-05-25T14:26:37.667Z,7.85
2018-05-25T14:29:03.975Z,8.50
2018-05-25T14:31:30.962Z,9.23
2018-05-25T14:33:57.929Z,8.57
2018-05-25T14:36:24.154Z,9.03
2018-05-25T14:38:50.397Z,9.67
2018-05-25T14:41:16.682Z,9.70
2018-05-25T14:43:43.609Z,7.97
2018-05-25T14:46:09.868Z,8.50
2018-05-25T14:48:36.072Z,11.30
2018-05-25T14:51:02.349Z,9.77
2018-05-25T14:53:28.583Z,9.30
2018-05-25T14:55:54.850Z,8.83
2018-05-25T14:58:21.119Z,8.43
2018-05-25T15:00:47.358Z,7.63
2018-05-25T15:03:13.578Z,9.07
2018-05-25T15:05:39.807Z,8.50
2018-05-25T15:08:06.058Z,8.60
2018-05-25T15:10:32.295Z,7.90
2018-05-25T15:12:58.548Z,7.47
2018-05-25T15:15:24.823Z,8.53
2018-05-25T15:17:51.033Z,8.43
2018-05-25T15:20:17.270Z,7.77
2018-05-25T15:22:43.498Z,8.20
2018-05-25T15:25:09.783Z,7.53
2018-05-25T15:27:36.027Z,6.93
2018-05-25T15:30:02.285Z,10.63
2018-05-25T15:32:28.573Z,8.47
2018-05-25T15:34:54.830Z,7.97
2018-05-25T15:37:21.040Z,8.53
2018-05-25T15:39:47.310Z,8.57
2018-05-25T15:42:14.405Z,8.93
2018-05-25T15:44:47.348Z,9.33
2018-05-25T15:47:14.513Z,9.17
2018-05-25T15:49:40.774Z,9.87
2018-05-25T15:52:07.023Z,8.87
2018-05-25T15:54:34.807Z,8.43
2018-05-25T15:57:01.042Z,8.80
2018-05-25T15:59:27.331Z,8.13
2018-05-25T16:01:54.464Z,11.00
2018-05-25T16:04:21.088Z,9.37
2018-05-25T16:06:48.066Z,8.37
2018-05-25T16:09:14.286Z,8.77
2018-05-25T16:11:40.525Z,9.03
2018-05-25T16:14:06.946Z,9.53
2018-05-25T16:16:33.186Z,8.57
2018-05-25T16:18:59.431Z,8.90
2018-05-25T16:21:25.645Z,8.83
2018-05-25T16:23:52.065Z,8.80
2018-05-25T16:26:18.305Z,9.43
2018-05-25T16:28:44.701Z,8.70
2018-05-25T16:31:11.018Z,8.10
2018-05-25T16:33:38.013Z,8.50
2018-05-25T16:36:04.238Z,8.40
2018-05-25T16:38:30.476Z,8.73
2018-05-25T16:40:56.681Z,8.27
2018-05-25T16:43:23.012Z,7.90
2018-05-25T16:45:49.390Z,8.20
2018-05-25T16:48:15.683Z,8.67
2018-05-25T16:50:41.916Z,8.33
2018-05-25T16:53:08.160Z,7.33
2018-05-25T16:55:39.940Z,7.63
2018-05-25T16:58:06.179Z,7.73
2018-05-25T17:00:33.166Z,6.90
2018-05-25T17:02:59.375Z,6.60
2018-05-25T17:05:25.583Z,7.57
2018-05-25T17:07:52.564Z,7.23
2018-05-25T17:10:18.803Z,8.83
2018-05-25T17:12:45.077Z,8.13
2018-05-25T17:15:11.251Z,7.50
2018-05-25T17:17:37.478Z,7.17
2018-05-25T17:20:03.715Z,7.63
2018-05-25T17:22:29.951Z,7.37
2018-05-25T17:24:56.191Z,7.63
2018-05-25T17:27:22.428Z,8.10
2018-05-25T17:29:48.697Z,7.70
2018-05-25T17:32:15.049Z,7.37
2018-05-25T17:34:41.366Z,8.67
2018-05-25T17:37:07.580Z,7.00
2018-05-25T17:39:34.622Z,7.90
2018-05-25T17:42:00.959Z,6.87
2018-05-25T17:44:27.417Z,8.13
2018-05-25T17:46:53.812Z,7.90
2018-05-25T17:49:20.873Z,7.50
2018-05-25T17:51:47.901Z,7.43
2018-05-25T17:54:14.183Z,7.77
2018-05-25T17:56:40.415Z,7.83
2018-05-25T17:59:06.690Z,8.17
2018-05-25T18:01:33.669Z,8.53
2018-05-25T18:03:59.934Z,7.73
2018-05-25T18:06:26.228Z,7.80
2018-05-25T18:08:52.474Z,7.57
2018-05-25T18:11:18.862Z,7.57
2018-05-25T18:13:45.102Z,9.43
2018-05-25T18:16:11.345Z,7.83
2018-05-25T18:18:37.601Z,7.43
2018-05-25T18:21:03.873Z,7.20
2018-05-25T18:23:30.115Z,6.80
2018-05-25T18:25:56.358Z,6.80
2018-05-25T18:28:22.608Z,7.40
2018-05-25T18:30:48.873Z,7.40
2018-05-25T18:33:15.845Z,6.43
2018-05-25T18:35:42.071Z,6.50
2018-05-25T18:38:08.317Z,6.20
2018-05-25T18:40:34.525Z,5.83
2018-05-25T18:43:00.763Z,6.90
2018-05-25T18:45:27.025Z,7.40
2018-05-25T18:47:54.007Z,5.90
2018-05-25T18:50:20.986Z,6.80
2018-05-25T18:52:47.206Z,6.60
2018-05-25T18:55:13.440Z,6.67
2018-05-25T18:57:39.781Z,6.50
2018-05-25T19:00:06.070Z,6.57
2018-05-25T19:02:33.053Z,7.17
2018-05-25T19:04:59.293Z,6.20
2018-05-25T19:07:25.510Z,7.67
2018-05-25T19:09:51.744Z,6.87
2018-05-25T19:12:18.007Z,6.30
2018-05-25T19:14:44.217Z,7.37
2018-05-25T19:17:10.458Z,6.80
2018-05-25T19:19:36.711Z,6.67
2018-05-25T19:22:03.678Z,7.40
2018-05-25T19:24:29.985Z,5.57
2018-05-25T19:26:57.081Z,6.50
2018-05-25T19:29:23.292Z,7.20
2018-05-25T19:31:49.544Z,6.90
2018-05-25T19:34:15.769Z,7.03
2018-05-25T19:36:42.047Z,7.00
2018-05-25T19:39:08.267Z,6.37
2018-05-25T19:41:35.260Z,9.17
2018-05-25T19:44:01.484Z,7.27
2018-05-25T19:46:27.722Z,7.10
2018-05-25T19:48:53.950Z,6.90
2018-05-25T19:51:20.289Z,8.67
2018-05-25T19:53:46.536Z,7.67
2018-05-25T19:56:12.762Z,7.70
2018-05-25T19:58:39.075Z,7.33
2018-05-25T20:01:05.307Z,6.17
2018-05-25T20:03:31.546Z,7.57
2018-05-25T20:05:58.536Z,8.00
2018-05-25T20:08:24.766Z,7.50
2018-05-25T20:10:51.044Z,7.57
2018-05-25T20:13:17.317Z,6.73
2018-05-25T20:15:44.349Z,7.30
2018-05-25T20:18:11.333Z,8.03
2018-05-25T20:20:37.550Z,7.10
2018-05-25T20:23:03.917Z,6.80
2018-05-25T20:25:30.212Z,9.00
2018-05-25T20:27:56.516Z,8.93
2018-05-25T20:30:22.763Z,7.13
2018-05-25T20:32:49.050Z,7.33
2018-05-25T20:35:15.471Z,8.23
2018-05-25T20:37:41.824Z,10.40
2018-05-25T20:40:08.838Z,7.40
2018-05-25T20:42:35.109Z,8.07
2018-05-25T20:45:01.374Z,7.47
2018-05-25T20:47:27.627Z,8.10
2018-05-25T20:49:53.876Z,7.90
2018-05-25T20:52:20.906Z,8.33
2018-05-25T20:54:47.913Z,8.43
2018-05-25T20:57:14.598Z,8.90
2018-05-25T20:59:40.830Z,8.63
2018-05-25T21:02:07.864Z,9.20
2018-05-25T21:04:34.070Z,9.70
2018-05-25T21:07:00.321Z,9.70
2018-05-25T21:09:27.260Z,9.10
2018-05-25T21:11:54.369Z,9.70
2018-05-25T21:14:20.631Z,9.37
2018-05-25T21:16:46.825Z,9.13
2018-05-25T21:19:13.070Z,9.37
2018-05-25T21:21:39.324Z,9.80
2018-05-25T21:24:05.630Z,10.07
2018-05-25T21:26:31.874Z,10.23
2018-05-25T21:28:58.209Z,9.93
2018-05-25T21:31:24.537Z,9.93
2018-05-25T21:33:50.800Z,10.77
2018-05-25T21:36:17.108Z,10.63
2018-05-25T21:38:43.307Z,9.90
2018-05-25T21:41:09.522Z,10.40
2018-05-25T21:43:35.763Z,10.33
2018-05-25T21:46:01.964Z,10.73
2018-05-25T21:48:28.187Z,10.20
2018-05-25T21:50:54.427Z,11.57
2018-05-25T21:53:20.654Z,10.93
2018-05-25T21:55:48.105Z,11.93
2018-05-25T21:58:14.332Z,11.63
2018-05-25T22:00:40.595Z,10.83
2018-05-25T22:03:06.822Z,12.77
2018-05-25T22:05:33.116Z,11.10
2018-05-25T22:07:59.391Z,11.47
2018-05-25T22:10:25.622Z,11.80
2018-05-25T22:12:51.940Z,13.80
2018-05-25T22:15:18.149Z,12.57
2018-05-25T22:17:44.419Z,11.83
2018-05-25T22:20:11.395Z,11.93
2018-05-25T22:22:37.622Z,11.63
2018-05-25T22:25:03.903Z,13.37
2018-05-25T22:27:30.133Z,12.37
2018-05-25T22:29:56.402Z,13.43
2018-05-25T22:32:22.628Z,13.37
2018-05-25T22:34:48.873Z,11.37
2018-05-25T22:37:15.064Z,11.93
2018-05-25T22:39:43.250Z,12.60
2018-05-25T22:42:09.239Z,12.80
2018-05-25T22:44:47.719Z,13.13
2018-05-25T22:47:26.183Z,13.27
2018-05-25T22:50:05.534Z,15.17
2018-05-25T22:52:37.763Z,15.17
2018-05-25T22:55:11.433Z,14.40
2018-05-25T22:57:37.778Z,14.47
2018-05-25T23:00:04.021Z,15.27
2018-05-25T23:02:30.267Z,13.07
2018-05-25T23:04:56.464Z,14.30
2018-05-25T23:07:22.704Z,13.90
2018-05-25T23:09:48.953Z,14.77
2018-05-25T23:12:15.901Z,13.53
2018-05-25T23:14:42.857Z,13.00
2018-05-25T23:17:09.829Z,13.90
2018-05-25T23:19:36.028Z,16.13
2018-05-25T23:22:02.990Z,14.30
2018-05-25T23:24:29.198Z,14.73
2018-05-25T23:26:56.224Z,14.13
2018-05-25T23:29:22.438Z,14.97
2018-05-25T23:31:48.695Z,14.13
2018-05-25T23:34:15.661Z,14.27
2018-05-25T23:36:41.853Z,13.83
2018-05-25T23:39:08.246Z,15.00
2018-05-25T23:41:34.448Z,14.27
2018-05-25T23:44:00.676Z,15.37
2018-05-25T23:46:26.893Z,16.90
2018-05-25T23:48:53.119Z,17.43
2018-05-25T23:51:20.082Z,15.57
2018-05-25T23:53:46.298Z,15.47
2018-05-25T23:56:12.489Z,14.93
2018-05-25T23:58:38.731Z,15.47
